Sealand Guayaquil — A8QP3 — position and weather

sailwx.info

Track history (hours):
 
Tides and Currents Weather Stations Pressure Air Temp Water Temp Dewpoint Dewpoint Depression Visibility Wind Speed Wind Dir Waves Ship Positions

Sealand Guayaquil

Last reported at 2017-Oct-28 00:38 UTC. Time now 2017-Nov-24 07:15 UTC.
Position N 31°51' W 116°53'.
Warning: this ship's position is 27 days out of date.

Length 209 m; draft 8.7 m.

Type: Cargo ship. MMSI: 636091626.

Date/timePositionNaut miles runAvg speedWind from/ knotsBaromVisibWave heightAir tempDewpointWater temp
2017-Oct-28 00:38N 31°51' W 116°53'0 0.6
2017-Oct-28 00:27N 31°51' W 116°53'0 0.2
2017-Oct-27 22:50N 31°51' W 116°54'0 0.5
2017-Oct-27 22:30N 31°51' W 116°54'0 0.5
2017-Oct-27 22:00N 31°51' W 116°54'0 0.5
2017-Oct-27 21:27N 31°51' W 116°54'0 0.5
2017-Oct-27 21:00N 31°51' W 116°55'0 0.4
2017-Oct-27 19:48N 31°51' W 116°55'0 0.6
2017-Oct-27 19:25N 31°51' W 116°55'0 0.7
2017-Oct-27 18:57N 31°52' W 116°55'2 0.2
2017-Oct-27 09:22N 31°53' W 116°57'2 2.2
2017-Oct-27 08:36N 31°53' W 116°55'62 9.7
2017-Oct-27 02:11N 32°38' W 117°46'410.2
2017-Oct-27 01:50N 32°41' W 117°47'510.5
2017-Oct-27 01:20N 32°46' W 117°50'1610.5
2017-Oct-26 23:47N 33°01' W 117°57'1010.8
2017-Oct-26 22:51N 33°11' W 118°02'410.8
2017-Oct-26 22:30N 33°14' W 118°04'1910.6
2017-Oct-26 20:43N 33°32' W 118°12'210.6
2017-Oct-26 20:30N 33°34' W 118°13'510.4
2017-Oct-26 20:00N 33°39' W 118°14'5 9.8
2017-Oct-26 19:30N 33°43' W 118°16'0 0.8
2017-Oct-26 18:57N 33°44' W 118°15'0 0.0
2017-Oct-26 18:27N 33°44' W 118°15'0 0.0
2017-Oct-26 17:51N 33°44' W 118°15'0 0.0
2017-Oct-26 17:27N 33°44' W 118°15'0 0.0
2017-Oct-26 16:57N 33°44' W 118°15'0 0.0
2017-Oct-26 16:27N 33°44' W 118°15'0 0.0
2017-Oct-26 15:51N 33°44' W 118°15'0 0.0
2017-Oct-26 15:27N 33°44' W 118°15'0 0.1
2017-Oct-26 14:57N 33°44' W 118°15'0 0.1
2017-Oct-26 14:27N 33°44' W 118°15'0 0.0
2017-Oct-26 13:57N 33°44' W 118°15'0 0.0
2017-Oct-26 13:27N 33°44' W 118°15'0 0.0
2017-Oct-26 12:57N 33°44' W 118°15'0 0.0
2017-Oct-26 12:27N 33°44' W 118°15'0 0.0
2017-Oct-26 11:51N 33°44' W 118°15'0 0.0
2017-Oct-26 11:27N 33°44' W 118°15'0 0.0
2017-Oct-26 10:51N 33°44' W 118°15'0 0.0
2017-Oct-26 10:27N 33°44' W 118°15'0 0.0
2017-Oct-26 09:57N 33°44' W 118°15'0 0.0
2017-Oct-26 09:27N 33°44' W 118°15'0 0.0
2017-Oct-26 08:57N 33°44' W 118°15'0 0.0
2017-Oct-26 08:21N 33°44' W 118°15'0 0.0
2017-Oct-26 07:51N 33°44' W 118°15'0 0.0
2017-Oct-26 07:27N 33°44' W 118°15'0 0.0
2017-Oct-26 06:57N 33°44' W 118°15'0 0.0
2017-Oct-26 06:27N 33°44' W 118°15'0 0.0
2017-Oct-26 05:57N 33°44' W 118°15'0 0.0
2017-Oct-26 05:27N 33°44' W 118°15'0 0.0
2017-Oct-26 04:57N 33°44' W 118°15'0 0.0
2017-Oct-26 04:27N 33°44' W 118°15'0 0.0
2017-Oct-26 03:57N 33°44' W 118°15'0 0.0
2017-Oct-26 03:27N 33°44' W 118°15'0 0.0
2017-Oct-26 02:57N 33°44' W 118°15'0 0.0
2017-Oct-26 02:21N 33°44' W 118°15'0 0.0
2017-Oct-26 01:57N 33°44' W 118°15'0 0.0
2017-Oct-26 01:27N 33°44' W 118°15'0 0.0
2017-Oct-26 00:57N 33°44' W 118°15'0 0.0
2017-Oct-26 00:27N 33°44' W 118°15'0 0.0
2017-Oct-25 23:57N 33°44' W 118°15'0 0.0
2017-Oct-25 23:27N 33°44' W 118°15'0 0.0
2017-Oct-25 22:57N 33°44' W 118°15'0 0.0
2017-Oct-25 22:27N 33°44' W 118°15'0 0.0
2017-Oct-25 21:57N 33°44' W 118°15'0 0.0
2017-Oct-25 21:27N 33°44' W 118°15'0 0.0
2017-Oct-25 20:57N 33°44' W 118°15'0 0.0
2017-Oct-25 20:27N 33°44' W 118°15'0 0.0
2017-Oct-25 19:57N 33°44' W 118°15'0 0.0
2017-Oct-25 19:21N 33°44' W 118°15'0 0.0
2017-Oct-25 18:57N 33°44' W 118°15'0 0.0
2017-Oct-25 18:27N 33°44' W 118°15'0 0.0
2017-Oct-25 17:57N 33°44' W 118°15'0 0.0
2017-Oct-25 17:27N 33°44' W 118°15'0 0.0
2017-Oct-25 16:57N 33°44' W 118°15'0 0.0
2017-Oct-25 16:27N 33°44' W 118°15'0 0.0
2017-Oct-25 15:45N 33°44' W 118°15'0 0.0
2017-Oct-25 15:27N 33°44' W 118°15'0 0.1
2017-Oct-25 14:57N 33°44' W 118°15'0 0.1
2017-Oct-25 14:27N 33°44' W 118°15'0 0.0
2017-Oct-25 13:58N 33°44' W 118°15'1 1.9
2017-Oct-25 13:29N 33°43' W 118°16'5 5.8
2017-Oct-25 12:42N 33°39' W 118°13'2810.2
2017-Oct-25 09:59N 33°48' W 118°45'612.6
2017-Oct-25 09:30N 33°51' W 118°51'815.5
2017-Oct-25 08:59N 33°55' W 118°59'815.6
2017-Oct-25 08:30N 33°59' W 119°07'815.1
2017-Oct-25 07:59N 34°04' W 119°14'510.0
2017-Oct-25 07:30N 34°09' W 119°12'0 0.3
2017-Oct-25 07:00N 34°09' W 119°12'0 0.0
2017-Oct-25 06:26N 34°09' W 119°12'0 0.0
2017-Oct-25 05:59N 34°09' W 119°12'0 0.0
2017-Oct-25 05:30N 34°09' W 119°12'0 0.0
2017-Oct-25 04:56N 34°09' W 119°12'0 0.0
2017-Oct-25 04:28N 34°09' W 119°12'0 0.0
2017-Oct-25 03:56N 34°09' W 119°12'0 0.0
2017-Oct-25 03:30N 34°09' W 119°12'0 0.0
2017-Oct-25 03:00N 34°09' W 119°12'0 0.0
2017-Oct-25 02:27N 34°09' W 119°12'0 0.0
2017-Oct-24 21:34N 34°09' W 119°12'0 0.0
2017-Oct-24 21:19N 34°09' W 119°12'0 0.0
2017-Oct-24 20:49N 34°09' W 119°12'0 0.0
2017-Oct-24 20:25N 34°09' W 119°12'0 0.0
2017-Oct-24 19:58N 34°09' W 119°12'0 0.0
2017-Oct-24 13:40N 34°09' W 119°12'0 0.0
2017-Oct-24 11:52N 34°09' W 119°12'0 0.1
2017-Oct-24 11:29N 34°09' W 119°12'2 3.3
2017-Oct-24 10:59N 34°08' W 119°14'3 5.4
2017-Oct-24 10:30N 34°05' W 119°15'5 9.7
2017-Oct-24 10:00N 34°02' W 119°10'714.7
2017-Oct-24 09:31N 33°59' W 119°02'714.5
2017-Oct-24 09:00N 33°55' W 118°55'714.4
2017-Oct-24 08:31N 33°51' W 118°47'611.9
2017-Oct-24 08:00N 33°48' W 118°41'611.8
2017-Oct-24 07:30N 33°45' W 118°35'612.1
2017-Oct-24 07:00N 33°42' W 118°29'611.9
2017-Oct-24 06:30N 33°39' W 118°22'1510.9
2017-Oct-24 05:09N 33°31' W 118°08'212.2
2017-Oct-24 05:00N 33°30' W 118°07'1011.9
2017-Oct-24 04:10N 33°20' W 118°03'211.8
2017-Oct-24 04:00N 33°18' W 118°02'815.2
2017-Oct-24 03:29N 33°11' W 117°59'816.5
2017-Oct-24 03:00N 33°03' W 117°56'816.5
2017-Oct-24 02:30N 32°56' W 117°53'816.6
2017-Oct-24 02:00N 32°48' W 117°50'816.5
2017-Oct-24 01:30N 32°40' W 117°47'816.8
2017-Oct-24 01:00N 32°32' W 117°43'714.6
2017-Oct-24 00:30N 32°25' W 117°40'  
Track history (hours):
 
Tides and Currents Weather Stations Pressure Air Temp Water Temp Dewpoint Dewpoint Depression Visibility Wind Speed Wind Dir Waves Ship Positions

Sealand Guayaquil

Last reported at 2017-Oct-28 00:38 UTC. Time now 2017-Nov-24 07:15 UTC.
Position N 31°51' W 116°53'.
Warning: this ship's position is 27 days out of date.

Length 209 m; draft 8.7 m.

Type: Cargo ship. MMSI: 636091626.

Date/timePositionNaut miles runAvg speedWind from/ knotsBaromVisibWave heightAir tempDewpointWater temp
2017-Oct-28 00:38N 31°51' W 116°53'0 0.6
2017-Oct-28 00:27N 31°51' W 116°53'0 0.2
2017-Oct-27 22:50N 31°51' W 116°54'0 0.5
2017-Oct-27 22:30N 31°51' W 116°54'0 0.5
2017-Oct-27 22:00N 31°51' W 116°54'0 0.5
2017-Oct-27 21:27N 31°51' W 116°54'0 0.5
2017-Oct-27 21:00N 31°51' W 116°55'0 0.4
2017-Oct-27 19:48N 31°51' W 116°55'0 0.6
2017-Oct-27 19:25N 31°51' W 116°55'0 0.7
2017-Oct-27 18:57N 31°52' W 116°55'2 0.2
2017-Oct-27 09:22N 31°53' W 116°57'2 2.2
2017-Oct-27 08:36N 31°53' W 116°55'62 9.7
2017-Oct-27 02:11N 32°38' W 117°46'410.2
2017-Oct-27 01:50N 32°41' W 117°47'510.5
2017-Oct-27 01:20N 32°46' W 117°50'1610.5
2017-Oct-26 23:47N 33°01' W 117°57'1010.8
2017-Oct-26 22:51N 33°11' W 118°02'410.8
2017-Oct-26 22:30N 33°14' W 118°04'1910.6
2017-Oct-26 20:43N 33°32' W 118°12'210.6
2017-Oct-26 20:30N 33°34' W 118°13'510.4
2017-Oct-26 20:00N 33°39' W 118°14'5 9.8
2017-Oct-26 19:30N 33°43' W 118°16'0 0.8
2017-Oct-26 18:57N 33°44' W 118°15'0 0.0
2017-Oct-26 18:27N 33°44' W 118°15'0 0.0
2017-Oct-26 17:51N 33°44' W 118°15'0 0.0
2017-Oct-26 17:27N 33°44' W 118°15'0 0.0
2017-Oct-26 16:57N 33°44' W 118°15'0 0.0
2017-Oct-26 16:27N 33°44' W 118°15'0 0.0
2017-Oct-26 15:51N 33°44' W 118°15'0 0.0
2017-Oct-26 15:27N 33°44' W 118°15'0 0.1
2017-Oct-26 14:57N 33°44' W 118°15'0 0.1
2017-Oct-26 14:27N 33°44' W 118°15'0 0.0
2017-Oct-26 13:57N 33°44' W 118°15'0 0.0
2017-Oct-26 13:27N 33°44' W 118°15'0 0.0
2017-Oct-26 12:57N 33°44' W 118°15'0 0.0
2017-Oct-26 12:27N 33°44' W 118°15'0 0.0
2017-Oct-26 11:51N 33°44' W 118°15'0 0.0
2017-Oct-26 11:27N 33°44' W 118°15'0 0.0
2017-Oct-26 10:51N 33°44' W 118°15'0 0.0
2017-Oct-26 10:27N 33°44' W 118°15'0 0.0
2017-Oct-26 09:57N 33°44' W 118°15'0 0.0
2017-Oct-26 09:27N 33°44' W 118°15'0 0.0
2017-Oct-26 08:57N 33°44' W 118°15'0 0.0
2017-Oct-26 08:21N 33°44' W 118°15'0 0.0
2017-Oct-26 07:51N 33°44' W 118°15'0 0.0
2017-Oct-26 07:27N 33°44' W 118°15'0 0.0
2017-Oct-26 06:57N 33°44' W 118°15'0 0.0
2017-Oct-26 06:27N 33°44' W 118°15'0 0.0
2017-Oct-26 05:57N 33°44' W 118°15'0 0.0
2017-Oct-26 05:27N 33°44' W 118°15'0 0.0
2017-Oct-26 04:57N 33°44' W 118°15'0 0.0
2017-Oct-26 04:27N 33°44' W 118°15'0 0.0
2017-Oct-26 03:57N 33°44' W 118°15'0 0.0
2017-Oct-26 03:27N 33°44' W 118°15'0 0.0
2017-Oct-26 02:57N 33°44' W 118°15'0 0.0
2017-Oct-26 02:21N 33°44' W 118°15'0 0.0
2017-Oct-26 01:57N 33°44' W 118°15'0 0.0
2017-Oct-26 01:27N 33°44' W 118°15'0 0.0
2017-Oct-26 00:57N 33°44' W 118°15'0 0.0
2017-Oct-26 00:27N 33°44' W 118°15'0 0.0
2017-Oct-25 23:57N 33°44' W 118°15'0 0.0
2017-Oct-25 23:27N 33°44' W 118°15'0 0.0
2017-Oct-25 22:57N 33°44' W 118°15'0 0.0
2017-Oct-25 22:27N 33°44' W 118°15'0 0.0
2017-Oct-25 21:57N 33°44' W 118°15'0 0.0
2017-Oct-25 21:27N 33°44' W 118°15'0 0.0
2017-Oct-25 20:57N 33°44' W 118°15'0 0.0
2017-Oct-25 20:27N 33°44' W 118°15'0 0.0
2017-Oct-25 19:57N 33°44' W 118°15'0 0.0
2017-Oct-25 19:21N 33°44' W 118°15'0 0.0
2017-Oct-25 18:57N 33°44' W 118°15'0 0.0
2017-Oct-25 18:27N 33°44' W 118°15'0 0.0
2017-Oct-25 17:57N 33°44' W 118°15'0 0.0
2017-Oct-25 17:27N 33°44' W 118°15'0 0.0
2017-Oct-25 16:57N 33°44' W 118°15'0 0.0
2017-Oct-25 16:27N 33°44' W 118°15'0 0.0
2017-Oct-25 15:45N 33°44' W 118°15'0 0.0
2017-Oct-25 15:27N 33°44' W 118°15'0 0.1
2017-Oct-25 14:57N 33°44' W 118°15'0 0.1
2017-Oct-25 14:27N 33°44' W 118°15'0 0.0
2017-Oct-25 13:58N 33°44' W 118°15'1 1.9
2017-Oct-25 13:29N 33°43' W 118°16'5 5.8
2017-Oct-25 12:42N 33°39' W 118°13'2810.2
2017-Oct-25 09:59N 33°48' W 118°45'612.6
2017-Oct-25 09:30N 33°51' W 118°51'815.5
2017-Oct-25 08:59N 33°55' W 118°59'815.6
2017-Oct-25 08:30N 33°59' W 119°07'815.1
2017-Oct-25 07:59N 34°04' W 119°14'510.0
2017-Oct-25 07:30N 34°09' W 119°12'0 0.3
2017-Oct-25 07:00N 34°09' W 119°12'0 0.0
2017-Oct-25 06:26N 34°09' W 119°12'0 0.0
2017-Oct-25 05:59N 34°09' W 119°12'0 0.0
2017-Oct-25 05:30N 34°09' W 119°12'0 0.0
2017-Oct-25 04:56N 34°09' W 119°12'0 0.0
2017-Oct-25 04:28N 34°09' W 119°12'0 0.0
2017-Oct-25 03:56N 34°09' W 119°12'0 0.0
2017-Oct-25 03:30N 34°09' W 119°12'0 0.0
2017-Oct-25 03:00N 34°09' W 119°12'0 0.0
2017-Oct-25 02:27N 34°09' W 119°12'0 0.0
2017-Oct-24 21:34N 34°09' W 119°12'0 0.0
2017-Oct-24 21:19N 34°09' W 119°12'0 0.0
2017-Oct-24 20:49N 34°09' W 119°12'0 0.0
2017-Oct-24 20:25N 34°09' W 119°12'0 0.0
2017-Oct-24 19:58N 34°09' W 119°12'0 0.0
2017-Oct-24 13:40N 34°09' W 119°12'0 0.0
2017-Oct-24 11:52N 34°09' W 119°12'0 0.1
2017-Oct-24 11:29N 34°09' W 119°12'2 3.3
2017-Oct-24 10:59N 34°08' W 119°14'3 5.4
2017-Oct-24 10:30N 34°05' W 119°15'5 9.7
2017-Oct-24 10:00N 34°02' W 119°10'714.7
2017-Oct-24 09:31N 33°59' W 119°02'714.5
2017-Oct-24 09:00N 33°55' W 118°55'714.4
2017-Oct-24 08:31N 33°51' W 118°47'611.9
2017-Oct-24 08:00N 33°48' W 118°41'611.8
2017-Oct-24 07:30N 33°45' W 118°35'612.1
2017-Oct-24 07:00N 33°42' W 118°29'611.9
2017-Oct-24 06:30N 33°39' W 118°22'1510.9
2017-Oct-24 05:09N 33°31' W 118°08'212.2
2017-Oct-24 05:00N 33°30' W 118°07'1011.9
2017-Oct-24 04:10N 33°20' W 118°03'211.8
2017-Oct-24 04:00N 33°18' W 118°02'815.2
2017-Oct-24 03:29N 33°11' W 117°59'816.5
2017-Oct-24 03:00N 33°03' W 117°56'816.5
2017-Oct-24 02:30N 32°56' W 117°53'816.6
2017-Oct-24 02:00N 32°48' W 117°50'816.5
2017-Oct-24 01:30N 32°40' W 117°47'816.8
2017-Oct-24 01:00N 32°32' W 117°43'714.6
2017-Oct-24 00:30N 32°25' W 117°40'  

Dump ship's entire track history